Time;durP1;ratioP1;P1;durP2;ratioP2;P2;SDS_P1;SDS_P2;PMS_P1;PMS_P2;Temp;Humidity;BMP_temperature;BMP_pressure;BME280_temperature;BME280_humidity;BME280_pressure;Samples;Min_cycle;Max_cycle;Signal;HPM_P1;HPM_P2
2022/01/23 00:02:15;;;;;;;;;;;22.90;26.20;;;;;;5121869;27;19923;-52
2022/01/23 00:04:41;;;;;;;;;;;22.90;26.20;;;;;;5128515;27;19930;-52
2022/01/23 00:07:09;;;;;;;;;;;22.80;26.20;;;;;;5122993;27;19927;-52
2022/01/23 00:09:35;;;;;;;;;;;22.90;26.20;;;;;;5123469;27;19924;-51
2022/01/23 00:12:06;;;;;;;;;;;22.80;26.20;;;;;;5128878;27;19923;-51
2022/01/23 00:17:20;;;;;;;;;;;22.80;26.20;;;;;;5122584;27;19923;-50
2022/01/23 00:19:47;;;;;;;;;;;22.80;26.20;;;;;;5127894;27;19923;-50
2022/01/23 00:22:13;;;;;;;;;;;22.80;26.10;;;;;;5121466;27;20207;-50
2022/01/23 00:30:28;;;;;;;;;;;22.80;26.10;;;;;;5122902;27;19924;-51
2022/01/23 00:32:55;;;;;;;;;;;22.90;26.10;;;;;;5122720;27;19929;-47
2022/01/23 00:35:21;;;;;;;;;;;22.80;26.10;;;;;;5127419;27;19946;-49
2022/01/23 00:37:46;;;;;;;;;;;22.90;26.20;;;;;;5122671;27;19932;-51
2022/01/23 00:40:12;;;;;;;;;;;22.90;26.20;;;;;;5120777;27;20320;-50
2022/01/23 00:42:38;;;;;;;;;;;22.90;26.20;;;;;;5127805;27;20348;-47
2022/01/23 00:45:27;;;;;;;;;;;22.90;26.20;;;;;;5122424;27;20010;-50
2022/01/23 00:47:56;;;;;;;;;;;22.90;26.20;;;;;;5122826;27;19970;-50
2022/01/23 00:50:22;;;;;;;;;;;22.90;26.20;;;;;;5127836;27;20060;-47
2022/01/23 00:52:47;;;;;;;;;;;22.90;26.20;;;;;;5121655;27;19931;-50
2022/01/23 00:55:13;;;;;;;;;;;22.90;26.20;;;;;;5126270;27;19970;-54
2022/01/23 00:57:39;;;;;;;;;;;22.90;26.20;;;;;;5122173;27;20386;-53
2022/01/23 01:00:05;;;;;;;;;;;22.90;26.20;;;;;;5121741;27;20294;-48
2022/01/23 01:02:31;;;;;;;;;;;22.90;26.30;;;;;;5127389;27;20017;-49
2022/01/23 01:04:57;;;;;;;;;;;22.90;26.20;;;;;;5122397;27;19927;-49
2022/01/23 01:07:23;;;;;;;;;;;22.90;26.20;;;;;;5122174;27;19989;-50
2022/01/23 01:09:51;;;;;;;;;;;23.00;26.00;;;;;;5127596;27;20018;-49
2022/01/23 01:12:21;;;;;;;;;;;22.90;26.20;;;;;;5121070;27;20446;-51
2022/01/23 01:30:11;;;;;;;;;;;22.90;26.20;;;;;;5090654;27;19928;-48
2022/01/23 01:31:29;;;;;;;;;;;22.90;26.20;;;;;;5120883;27;19930;-48
2022/01/23 01:36:46;;;;;;;;;;;23.00;26.10;;;;;;5121815;27;20276;-48
2022/01/23 01:39:12;;;;;;;;;;;23.00;26.10;;;;;;5121193;27;20022;-46
2022/01/23 01:41:39;;;;;;;;;;;23.00;26.20;;;;;;5126832;27;19931;-51
2022/01/23 01:44:05;;;;;;;;;;;23.00;26.10;;;;;;5122745;27;19937;-49
2022/01/23 01:46:30;;;;;;;;;;;22.90;26.10;;;;;;5121558;27;19927;-49
2022/01/23 01:48:56;;;;;;;;;;;22.90;26.10;;;;;;5126227;27;19930;-48
2022/01/23 01:51:23;;;;;;;;;;;23.00;26.10;;;;;;5121352;27;19976;-50
2022/01/23 01:53:53;;;;;;;;;;;22.90;26.20;;;;;;5119212;27;20010;-47
2022/01/23 01:56:18;;;;;;;;;;;22.90;26.30;;;;;;5126348;27;19934;-52
2022/01/23 01:59:09;;;;;;;;;;;23.00;26.20;;;;;;5120916;27;19955;-48
2022/01/23 02:09:49;;;;;;;;;;;23.00;26.20;;;;;;5121126;28;20562;-49
2022/01/23 02:15:09;;;;;;;;;;;22.90;26.20;;;;;;5120999;28;19923;-47
2022/01/23 02:54:56;;;;;;;;;;;23.00;26.20;;;;;;5130210;27;19957;-50
2022/01/23 02:58:09;;;;;;;;;;;22.90;26.30;;;;;;5121757;27;19924;-53
2022/01/23 03:00:14;;;;;;;;;;;22.90;26.30;;;;;;5113862;27;19927;-55
2022/01/23 03:02:46;;;;;;;;;;;22.80;26.40;;;;;;5129453;27;20018;-51
2022/01/23 03:05:32;;;;;;;;;;;22.80;26.50;;;;;;5124586;27;19946;-51
2022/01/23 03:08:54;;;;;;;;;;;22.80;26.50;;;;;;5122243;27;20002;-51
2022/01/23 03:11:04;;;;;;;;;;;22.80;26.60;;;;;;5120459;27;19924;-57
2022/01/23 03:14:16;;;;;;;;;;;22.80;26.60;;;;;;5129907;27;19923;-49
2022/01/23 03:29:55;;;;;;;;;;;22.80;26.70;;;;;;5129003;27;19927;-51
2022/01/23 03:32:28;;;;;;;;;;;22.70;26.80;;;;;;5124083;27;19923;-48
2022/01/23 03:34:54;;;;;;;;;;;22.70;26.80;;;;;;5123816;27;20371;-50
2022/01/23 03:37:20;;;;;;;;;;;22.80;26.70;;;;;;5111081;27;19982;-50
2022/01/23 03:39:46;;;;;;;;;;;22.80;26.70;;;;;;5123023;27;20312;-48
2022/01/23 03:42:12;;;;;;;;;;;22.80;26.60;;;;;;5105254;27;20012;-53
2022/01/23 03:44:41;;;;;;;;;;;22.90;26.60;;;;;;5108496;27;20358;-49
2022/01/23 03:47:21;;;;;;;;;;;22.80;26.70;;;;;;5105032;27;20569;-52
2022/01/23 03:49:48;;;;;;;;;;;22.80;26.70;;;;;;5123392;27;19959;-47
2022/01/23 03:52:14;;;;;;;;;;;22.80;26.60;;;;;;5129143;27;19950;-48
2022/01/23 03:54:40;;;;;;;;;;;22.80;26.60;;;;;;5105318;27;19924;-51
2022/01/23 03:57:06;;;;;;;;;;;22.80;26.60;;;;;;5128786;27;20386;-50
2022/01/23 03:59:32;;;;;;;;;;;22.80;26.60;;;;;;5105192;27;19975;-52
2022/01/23 04:01:58;;;;;;;;;;;22.80;26.60;;;;;;5122573;27;19931;-51
2022/01/23 04:04:37;;;;;;;;;;;22.80;26.60;;;;;;5127862;27;20347;-49
2022/01/23 04:07:04;;;;;;;;;;;22.80;26.60;;;;;;5121036;27;19923;-51
2022/01/23 04:09:30;;;;;;;;;;;22.80;26.60;;;;;;5123755;27;19927;-49
2022/01/23 04:11:58;;;;;;;;;;;22.80;26.60;;;;;;5128956;27;19927;-48
2022/01/23 04:14:25;;;;;;;;;;;22.90;26.60;;;;;;5123364;27;20422;-52
2022/01/23 04:33:16;;;;;;;;;;;23.00;26.40;;;;;;5122793;27;19929;-51
2022/01/23 04:45:16;;;;;;;;;;;23.00;26.40;;;;;;5127583;27;20359;-49
2022/01/23 04:59:53;;;;;;;;;;;22.90;26.50;;;;;;5121135;27;20289;-48
2022/01/23 05:03:06;;;;;;;;;;;22.90;26.50;;;;;;5127276;27;19927;-48
2022/01/23 05:05:13;;;;;;;;;;;22.90;26.50;;;;;;5119272;27;19964;-47
2022/01/23 05:07:46;;;;;;;;;;;22.90;26.50;;;;;;5122500;27;20022;-50
2022/01/23 05:10:12;;;;;;;;;;;23.00;26.30;;;;;;5127413;27;19923;-47
2022/01/23 05:12:37;;;;;;;;;;;22.90;26.40;;;;;;5121359;27;19924;-48
2022/01/23 05:15:05;;;;;;;;;;;23.00;26.40;;;;;;5103773;27;20039;-46
2022/01/23 05:17:32;;;;;;;;;;;23.00;26.30;;;;;;5125394;27;20339;-46
2022/01/23 05:19:57;;;;;;;;;;;23.00;26.30;;;;;;5121689;27;19924;-48
2022/01/23 05:22:35;;;;;;;;;;;23.00;26.30;;;;;;5124066;27;19980;-52
2022/01/23 05:25:10;;;;;;;;;;;22.90;26.40;;;;;;5127555;27;20430;-48
2022/01/23 05:27:36;;;;;;;;;;;23.00;26.40;;;;;;5118588;27;20359;-46
2022/01/23 05:30:03;;;;;;;;;;;23.00;26.30;;;;;;5126039;27;19927;-53
2022/01/23 05:32:35;;;;;;;;;;;23.00;26.20;;;;;;5123304;27;20387;-47
2022/01/23 05:35:01;;;;;;;;;;;23.00;26.20;;;;;;5101575;27;20392;-46
2022/01/23 05:37:27;;;;;;;;;;;23.20;26.00;;;;;;5126533;27;19924;-47
2022/01/23 05:39:53;;;;;;;;;;;23.20;26.00;;;;;;5121327;27;19931;-48
2022/01/23 05:42:19;;;;;;;;;;;23.10;26.00;;;;;;5121710;27;19923;-53
2022/01/23 05:44:45;;;;;;;;;;;23.10;26.20;;;;;;5127185;27;20294;-53
2022/01/23 05:47:11;;;;;;;;;;;22.90;26.50;;;;;;5121628;27;19975;-52
2022/01/23 05:49:37;;;;;;;;;;;22.80;26.60;;;;;;5120877;27;19923;-54
2022/01/23 05:52:03;;;;;;;;;;;22.80;26.90;;;;;;5126645;27;20342;-54
2022/01/23 05:54:29;;;;;;;;;;;22.80;27.00;;;;;;5119435;27;19952;-52
2022/01/23 05:56:55;;;;;;;;;;;22.70;27.00;;;;;;5126419;27;19927;-52
2022/01/23 05:59:21;;;;;;;;;;;22.70;27.00;;;;;;5121167;27;20402;-53
2022/01/23 06:01:50;;;;;;;;;;;22.70;27.10;;;;;;5121463;27;20237;-51
2022/01/23 06:04:19;;;;;;;;;;;22.70;27.10;;;;;;5126765;27;19923;-48
2022/01/23 06:06:45;;;;;;;;;;;22.70;27.10;;;;;;5120975;27;19929;-49
2022/01/23 06:09:11;;;;;;;;;;;22.80;27.00;;;;;;5120958;28;20407;-48
2022/01/23 06:11:37;;;;;;;;;;;22.70;27.10;;;;;;5125309;28;20018;-49
2022/01/23 06:14:03;;;;;;;;;;;22.80;26.90;;;;;;5120043;28;19923;-51
2022/01/23 06:16:28;;;;;;;;;;;22.80;26.80;;;;;;5125646;28;19948;-53
2022/01/23 06:18:54;;;;;;;;;;;22.80;26.80;;;;;;5122204;28;19924;-49
2022/01/23 06:21:21;;;;;;;;;;;22.70;26.90;;;;;;5121333;28;19950;-49
2022/01/23 06:23:54;;;;;;;;;;;22.80;26.80;;;;;;5126659;28;19938;-48
2022/01/23 06:26:20;;;;;;;;;;;22.80;26.80;;;;;;5120459;28;19930;-51
2022/01/23 06:28:50;;;;;;;;;;;22.90;26.80;;;;;;5121168;28;19923;-47
2022/01/23 06:31:16;;;;;;;;;;;22.80;26.80;;;;;;5105925;28;20279;-50
2022/01/23 06:33:41;;;;;;;;;;;22.90;26.70;;;;;;5120685;28;19958;-50
2022/01/23 06:36:07;;;;;;;;;;;22.80;26.70;;;;;;5120791;28;19923;-50
2022/01/23 06:38:33;;;;;;;;;;;22.90;26.60;;;;;;5126550;28;19927;-52
2022/01/23 06:40:59;;;;;;;;;;;23.00;26.50;;;;;;5121286;28;19946;-46
2022/01/23 06:43:27;;;;;;;;;;;22.90;26.60;;;;;;5126327;28;19948;-47
2022/01/23 06:45:53;;;;;;;;;;;22.80;26.60;;;;;;5120335;28;20276;-48
2022/01/23 06:48:19;;;;;;;;;;;22.90;26.50;;;;;;5120014;28;19931;-55
2022/01/23 06:50:44;;;;;;;;;;;22.90;26.50;;;;;;5124716;28;20387;-48
2022/01/23 06:53:10;;;;;;;;;;;22.90;26.60;;;;;;5120431;28;20446;-49
2022/01/23 06:55:36;;;;;;;;;;;22.80;26.60;;;;;;5120583;28;20018;-48
2022/01/23 06:58:02;;;;;;;;;;;22.90;26.50;;;;;;5126387;28;20018;-49
2022/01/23 07:00:28;;;;;;;;;;;22.90;26.50;;;;;;5120790;28;19924;-50
2022/01/23 07:02:53;;;;;;;;;;;22.90;26.50;;;;;;5125425;28;19927;-47
2022/01/23 07:05:19;;;;;;;;;;;23.00;26.40;;;;;;5120924;28;20401;-47
2022/01/23 07:07:45;;;;;;;;;;;22.90;26.60;;;;;;5118841;28;19930;-47
2022/01/23 07:10:11;;;;;;;;;;;22.90;26.60;;;;;;5128610;27;19931;-47
2022/01/23 07:12:36;;;;;;;;;;;23.00;26.40;;;;;;5124165;27;19973;-47
2022/01/23 07:15:02;;;;;;;;;;;23.00;26.40;;;;;;5124729;27;19928;-47
2022/01/23 07:17:28;;;;;;;;;;;22.80;26.60;;;;;;5130019;27;19970;-50
2022/01/23 07:19:54;;;;;;;;;;;22.90;26.60;;;;;;5124294;27;19931;-49
2022/01/23 07:22:19;;;;;;;;;;;23.00;26.50;;;;;;5127337;27;19953;-55
2022/01/23 07:24:46;;;;;;;;;;;22.90;26.50;;;;;;5125944;27;20375;-47
2022/01/23 07:27:17;;;;;;;;;;;22.80;26.60;;;;;;5103349;27;19923;-48
2022/01/23 07:29:44;;;;;;;;;;;23.00;26.50;;;;;;5129183;27;20170;-47
2022/01/23 07:32:09;;;;;;;;;;;23.00;26.40;;;;;;5123888;27;20355;-48
2022/01/23 07:34:35;;;;;;;;;;;23.00;26.40;;;;;;5124226;27;19931;-50
2022/01/23 07:37:01;;;;;;;;;;;23.00;26.40;;;;;;5129730;27;19988;-50
2022/01/23 07:39:27;;;;;;;;;;;23.00;26.30;;;;;;5123570;27;19931;-47
2022/01/23 07:41:53;;;;;;;;;;;22.90;26.50;;;;;;5123768;27;20405;-47
2022/01/23 07:44:18;;;;;;;;;;;23.00;26.30;;;;;;5127872;27;19923;-49
2022/01/23 07:46:44;;;;;;;;;;;23.00;26.40;;;;;;5123051;27;19933;-48
2022/01/23 07:49:10;;;;;;;;;;;22.90;26.50;;;;;;5109695;27;19942;-46
2022/01/23 07:51:36;;;;;;;;;;;23.00;26.40;;;;;;5123855;27;19924;-48
2022/01/23 07:54:02;;;;;;;;;;;23.00;26.40;;;;;;5123873;27;19927;-47
2022/01/23 07:56:28;;;;;;;;;;;23.00;26.40;;;;;;5110849;27;20336;-47
2022/01/23 07:58:54;;;;;;;;;;;23.00;26.50;;;;;;5122781;27;19988;-46
2022/01/23 08:01:19;;;;;;;;;;;23.00;26.40;;;;;;5123557;27;20545;-47
2022/01/23 08:03:45;;;;;;;;;;;23.00;26.50;;;;;;5126750;27;19924;-48
2022/01/23 08:06:12;;;;;;;;;;;23.00;26.50;;;;;;5123166;27;20132;-48
2022/01/23 08:08:38;;;;;;;;;;;23.00;26.50;;;;;;5128487;27;20018;-46
2022/01/23 08:11:04;;;;;;;;;;;23.00;26.60;;;;;;5123328;27;19923;-45
2022/01/23 08:13:30;;;;;;;;;;;23.10;26.60;;;;;;5123540;27;19931;-47
2022/01/23 08:15:55;;;;;;;;;;;23.00;26.80;;;;;;5128633;27;20423;-49
2022/01/23 08:18:21;;;;;;;;;;;23.20;26.60;;;;;;5122890;27;19923;-45
2022/01/23 08:20:47;;;;;;;;;;;23.10;26.70;;;;;;5121210;27;20072;-45
2022/01/23 08:23:13;;;;;;;;;;;23.20;26.70;;;;;;5126718;27;20310;-44
2022/01/23 08:25:39;;;;;;;;;;;23.20;26.80;;;;;;5122790;27;19928;-45
2022/01/23 08:28:07;;;;;;;;;;;23.20;26.70;;;;;;5128185;27;20286;-52
2022/01/23 08:30:33;;;;;;;;;;;23.30;26.70;;;;;;5106100;27;19923;-52
2022/01/23 08:32:59;;;;;;;;;;;23.10;26.90;;;;;;5123089;27;19934;-53
2022/01/23 08:35:26;;;;;;;;;;;22.90;27.20;;;;;;5127833;27;20422;-51
2022/01/23 08:37:52;;;;;;;;;;;22.80;27.20;;;;;;5122707;27;20018;-50
2022/01/23 08:40:46;;;;;;;;;;;22.80;27.30;;;;;;5102501;27;19937;-53
2022/01/23 08:43:10;;;;;;;;;;;22.80;27.30;;;;;;5124402;27;19923;-50
2022/01/23 08:45:36;;;;;;;;;;;22.80;27.20;;;;;;5122234;27;19927;-53
2022/01/23 08:48:01;;;;;;;;;;;22.80;27.30;;;;;;5122897;27;19972;-49
2022/01/23 08:50:27;;;;;;;;;;;22.80;27.30;;;;;;5128364;27;19938;-50
2022/01/23 08:52:53;;;;;;;;;;;22.80;27.40;;;;;;5122581;27;19923;-50
2022/01/23 08:55:20;;;;;;;;;;;22.80;27.30;;;;;;5123613;27;19931;-56
2022/01/23 08:57:47;;;;;;;;;;;22.90;27.20;;;;;;5108391;27;19927;-47
2022/01/23 09:00:14;;;;;;;;;;;22.90;27.10;;;;;;5120620;27;19972;-49
2022/01/23 09:02:39;;;;;;;;;;;23.00;27.10;;;;;;5127314;27;19924;-48
2022/01/23 09:05:05;;;;;;;;;;;22.80;27.20;;;;;;5122109;27;19972;-47
2022/01/23 09:07:31;;;;;;;;;;;23.00;27.00;;;;;;5122479;27;19927;-48
2022/01/23 09:10:02;;;;;;;;;;;22.90;27.00;;;;;;5127915;27;19950;-48
2022/01/23 09:14:53;;;;;;;;;;;23.00;27.00;;;;;;5122099;27;19943;-50
2022/01/23 09:17:19;;;;;;;;;;;22.90;27.10;;;;;;5125505;27;19931;-51
2022/01/23 09:19:47;;;;;;;;;;;23.00;27.00;;;;;;5121763;27;19942;-46
2022/01/23 09:22:12;;;;;;;;;;;23.00;27.00;;;;;;5127007;27;20030;-46
2022/01/23 09:24:38;;;;;;;;;;;23.00;26.90;;;;;;5121867;27;19923;-48
2022/01/23 09:27:07;;;;;;;;;;;23.10;26.90;;;;;;5122178;27;19997;-47
2022/01/23 09:29:36;;;;;;;;;;;23.00;27.00;;;;;;5127209;27;19930;-47
2022/01/23 09:32:06;;;;;;;;;;;23.10;26.90;;;;;;5120789;27;19939;-45
2022/01/23 09:34:32;;;;;;;;;;;23.10;26.90;;;;;;5121748;27;19923;-48
2022/01/23 09:36:59;;;;;;;;;;;23.00;27.00;;;;;;5125292;27;19927;-47
2022/01/23 09:39:25;;;;;;;;;;;23.10;26.90;;;;;;5121446;27;19927;-46
2022/01/23 09:41:56;;;;;;;;;;;23.00;26.90;;;;;;5121593;27;20011;-50
2022/01/23 09:44:22;;;;;;;;;;;23.00;27.00;;;;;;5127222;27;19923;-48
2022/01/23 09:46:48;;;;;;;;;;;23.00;27.00;;;;;;5121733;27;19931;-45
2022/01/23 09:49:14;;;;;;;;;;;23.10;26.90;;;;;;5126627;27;19930;-47
2022/01/23 09:51:40;;;;;;;;;;;23.10;26.80;;;;;;5102968;27;20301;-46
2022/01/23 09:54:06;;;;;;;;;;;23.10;26.90;;;;;;5119992;27;20051;-50
2022/01/23 09:56:34;;;;;;;;;;;23.20;26.70;;;;;;5126176;27;19923;-45
2022/01/23 09:59:00;;;;;;;;;;;23.20;26.70;;;;;;5121101;27;20275;-45
2022/01/23 10:01:26;;;;;;;;;;;23.30;26.60;;;;;;5121251;27;20000;-46
2022/01/23 10:03:51;;;;;;;;;;;23.20;26.70;;;;;;5108553;28;19924;-48
2022/01/23 10:06:17;;;;;;;;;;;23.20;26.70;;;;;;5121346;27;19933;-51
2022/01/23 10:08:43;;;;;;;;;;;23.10;26.90;;;;;;5107184;27;19923;-53
2022/01/23 10:11:12;;;;;;;;;;;23.10;26.90;;;;;;5121631;28;19965;-48
2022/01/23 10:13:38;;;;;;;;;;;23.20;26.80;;;;;;5119116;28;19927;-55
2022/01/23 10:16:04;;;;;;;;;;;23.20;26.70;;;;;;5126307;28;20325;-46
2022/01/23 10:18:31;;;;;;;;;;;23.10;26.70;;;;;;5120829;28;19953;-51
2022/01/23 10:20:57;;;;;;;;;;;23.10;26.80;;;;;;5121178;28;19931;-45
2022/01/23 10:23:23;;;;;;;;;;;23.10;26.70;;;;;;5126604;28;19930;-47
2022/01/23 10:25:51;;;;;;;;;;;23.10;26.70;;;;;;5120818;28;19946;-47
2022/01/23 10:28:19;;;;;;;;;;;23.20;26.60;;;;;;5121821;28;19923;-53
2022/01/23 10:30:50;;;;;;;;;;;23.20;26.60;;;;;;5125310;28;19934;-52
2022/01/23 10:33:23;;;;;;;;;;;23.20;26.60;;;;;;5119842;28;19924;-51
2022/01/23 10:36:01;;;;;;;;;;;23.10;26.70;;;;;;5125966;28;20022;-56
2022/01/23 10:38:32;;;;;;;;;;;23.00;26.80;;;;;;5126515;28;19923;-54
2022/01/23 10:46:41;;;;;;;;;;;23.10;26.60;;;;;;5129835;27;19924;-49
2022/01/23 10:49:07;;;;;;;;;;;23.00;26.70;;;;;;5124183;27;20389;-55
2022/01/23 10:51:36;;;;;;;;;;;23.00;26.50;;;;;;5123435;27;19923;-48
2022/01/23 10:54:02;;;;;;;;;;;23.00;26.40;;;;;;5129650;27;20396;-49
2022/01/23 10:56:28;;;;;;;;;;;23.10;26.40;;;;;;5124835;27;19923;-48
2022/01/23 10:59:06;;;;;;;;;;;23.00;26.40;;;;;;5130512;27;19938;-49
2022/01/23 11:01:32;;;;;;;;;;;23.20;26.20;;;;;;5126788;27;19930;-47
2022/01/23 11:04:08;;;;;;;;;;;23.10;26.30;;;;;;5123633;27;19923;-48
2022/01/23 11:06:50;;;;;;;;;;;23.20;26.10;;;;;;5129893;27;19923;-47
2022/01/23 11:09:15;;;;;;;;;;;23.20;26.10;;;;;;5123936;27;19928;-46
2022/01/23 11:11:44;;;;;;;;;;;23.10;26.20;;;;;;5124104;27;19946;-46
2022/01/23 11:19:43;;;;;;;;;;;23.20;26.10;;;;;;5124339;27;19929;-50
2022/01/23 11:22:15;;;;;;;;;;;23.30;26.10;;;;;;5128992;27;19923;-53
2022/01/23 11:24:48;;;;;;;;;;;23.30;26.20;;;;;;5124590;27;19927;-49
2022/01/23 11:27:17;;;;;;;;;;;23.20;26.30;;;;;;5122387;27;19930;-47
2022/01/23 11:30:17;;;;;;;;;;;23.30;26.20;;;;;;5129217;27;19934;-47
2022/01/23 11:32:43;;;;;;;;;;;23.30;26.20;;;;;;5071673;27;19923;-46
2022/01/23 11:35:12;;;;;;;;;;;23.30;26.20;;;;;;5124297;27;19924;-49
2022/01/23 11:37:47;;;;;;;;;;;23.30;26.20;;;;;;5129779;27;19949;-55
2022/01/23 11:54:06;;;;;;;;;;;22.90;26.50;;;;;;5084910;27;20263;-52
2022/01/23 11:56:36;;;;;;;;;;;22.90;26.60;;;;;;5128895;27;19985;-50
2022/01/23 12:02:11;;;;;;;;;;;22.90;26.70;;;;;;5106313;27;19945;-52
2022/01/23 12:04:37;;;;;;;;;;;23.00;26.60;;;;;;5126904;27;20046;-51
2022/01/23 12:07:12;;;;;;;;;;;22.90;26.60;;;;;;5123053;27;20287;-53
2022/01/23 12:09:58;;;;;;;;;;;22.90;26.50;;;;;;5123253;27;19961;-50
2022/01/23 12:12:42;;;;;;;;;;;23.00;26.40;;;;;;5111066;27;20340;-51
2022/01/23 12:18:18;;;;;;;;;;;22.90;26.30;;;;;;5122284;27;19927;-51
2022/01/23 12:20:45;;;;;;;;;;;22.90;26.20;;;;;;5122963;27;19923;-51
2022/01/23 12:23:10;;;;;;;;;;;22.90;26.30;;;;;;5126601;27;19924;-48
2022/01/23 12:25:43;;;;;;;;;;;23.00;26.20;;;;;;5122738;27;20434;-51
2022/01/23 12:28:10;;;;;;;;;;;23.00;26.10;;;;;;5126258;27;20305;-54
2022/01/23 12:30:35;;;;;;;;;;;23.00;26.00;;;;;;5125590;27;19923;-52
2022/01/23 12:33:20;;;;;;;;;;;22.90;26.10;;;;;;5123067;27;19923;-49
2022/01/23 12:35:47;;;;;;;;;;;23.10;26.00;;;;;;5127896;27;19923;-50
2022/01/23 12:38:13;;;;;;;;;;;23.10;26.00;;;;;;5122412;27;19941;-49
2022/01/23 12:40:47;;;;;;;;;;;23.00;25.90;;;;;;5121273;27;19923;-53
2022/01/23 12:43:13;;;;;;;;;;;23.00;25.80;;;;;;5127442;27;19930;-50
2022/01/23 12:46:16;;;;;;;;;;;23.00;25.80;;;;;;5122275;27;19948;-51
2022/01/23 12:48:43;;;;;;;;;;;23.00;25.70;;;;;;5019159;28;19926;-50
2022/01/23 12:51:09;;;;;;;;;;;23.00;25.70;;;;;;5109353;27;19923;-50
2022/01/23 12:53:58;;;;;;;;;;;23.00;25.50;;;;;;5122294;27;20354;-52
2022/01/23 12:56:28;;;;;;;;;;;23.00;25.50;;;;;;5121727;27;20018;-50
2022/01/23 12:58:55;;;;;;;;;;;23.10;25.30;;;;;;5126727;27;19933;-53
2022/01/23 13:01:22;;;;;;;;;;;23.00;25.40;;;;;;5121369;27;19927;-50
2022/01/23 13:03:54;;;;;;;;;;;23.00;25.40;;;;;;5121886;27;19927;-50
2022/01/23 13:06:34;;;;;;;;;;;23.00;25.30;;;;;;5127150;27;19937;-51
2022/01/23 13:09:20;;;;;;;;;;;23.10;25.10;;;;;;5122339;27;20425;-50
2022/01/23 13:14:41;;;;;;;;;;;23.10;25.00;;;;;;5123577;27;19936;-55
2022/01/23 13:17:27;;;;;;;;;;;23.10;25.00;;;;;;5126276;27;19930;-49
2022/01/23 13:30:49;;;;;;;;;;;23.10;24.40;;;;;;5121495;27;19923;-47
2022/01/23 13:33:20;;;;;;;;;;;23.20;24.20;;;;;;5126520;27;20385;-47
2022/01/23 13:35:50;;;;;;;;;;;23.20;24.10;;;;;;5121077;27;19947;-50
2022/01/23 13:38:17;;;;;;;;;;;23.20;24.10;;;;;;5120172;27;19927;-50
2022/01/23 13:40:43;;;;;;;;;;;23.20;23.70;;;;;;5126515;27;19930;-50
2022/01/23 13:49:30;;;;;;;;;;;23.20;23.30;;;;;;5127177;27;19952;-47
2022/01/23 13:59:36;;;;;;;;;;;22.90;23.10;;;;;;5121149;27;19945;-54
2022/01/23 14:02:17;;;;;;;;;;;23.00;23.00;;;;;;5121527;27;19927;-54
2022/01/23 14:04:44;;;;;;;;;;;23.00;22.80;;;;;;5127109;27;19955;-51
2022/01/23 14:07:10;;;;;;;;;;;22.90;22.80;;;;;;5121501;27;19923;-50
2022/01/23 14:09:39;;;;;;;;;;;23.00;22.70;;;;;;5120633;27;20306;-53
2022/01/23 14:12:09;;;;;;;;;;;23.00;22.70;;;;;;5126631;28;20400;-50
2022/01/23 14:14:35;;;;;;;;;;;23.00;22.60;;;;;;5119470;28;19924;-50
2022/01/23 14:17:11;;;;;;;;;;;23.00;22.60;;;;;;5120917;28;19930;-49
2022/01/23 14:19:37;;;;;;;;;;;23.00;22.60;;;;;;5130457;27;19926;-49
2022/01/23 14:22:03;;;;;;;;;;;23.10;22.60;;;;;;5125722;27;19931;-52
2022/01/23 14:24:29;;;;;;;;;;;22.90;22.70;;;;;;5125532;27;19923;-51
2022/01/23 14:26:56;;;;;;;;;;;23.10;22.70;;;;;;5130663;27;20287;-48
2022/01/23 14:29:23;;;;;;;;;;;23.00;22.80;;;;;;5124998;27;19923;-50
2022/01/23 14:32:05;;;;;;;;;;;23.20;22.70;;;;;;5111188;27;19924;-52
2022/01/23 14:34:31;;;;;;;;;;;23.10;22.70;;;;;;5128547;27;20305;-50
2022/01/23 14:36:58;;;;;;;;;;;23.10;22.60;;;;;;5124774;27;19948;-47
2022/01/23 14:39:24;;;;;;;;;;;23.20;22.50;;;;;;5130625;27;19927;-46
2022/01/23 14:41:50;;;;;;;;;;;23.30;22.40;;;;;;5125143;27;19924;-44
2022/01/23 14:44:25;;;;;;;;;;;23.30;22.30;;;;;;5125347;27;19930;-54
2022/01/23 14:46:52;;;;;;;;;;;23.20;22.40;;;;;;5129904;27;19924;-54
2022/01/23 14:49:29;;;;;;;;;;;23.10;22.40;;;;;;5125059;27;20396;-53
2022/01/23 14:51:55;;;;;;;;;;;23.00;22.50;;;;;;5123054;27;19924;-51
2022/01/23 14:54:21;;;;;;;;;;;23.10;22.40;;;;;;5129818;27;19934;-52
2022/01/23 14:56:47;;;;;;;;;;;23.00;22.40;;;;;;5124618;27;19934;-51
2022/01/23 14:59:13;;;;;;;;;;;23.10;22.30;;;;;;5125870;27;19927;-57
2022/01/23 15:01:39;;;;;;;;;;;23.00;22.40;;;;;;5129960;27;20315;-52
2022/01/23 15:04:07;;;;;;;;;;;23.00;22.40;;;;;;5124451;27;19923;-50
2022/01/23 15:06:33;;;;;;;;;;;23.00;22.40;;;;;;5129951;27;19930;-53
2022/01/23 15:09:03;;;;;;;;;;;23.00;22.30;;;;;;5123581;27;20313;-50
2022/01/23 15:11:29;;;;;;;;;;;23.00;22.40;;;;;;5123843;27;19938;-47
2022/01/23 15:13:55;;;;;;;;;;;23.00;22.20;;;;;;5129713;27;19931;-50
2022/01/23 15:16:20;;;;;;;;;;;23.00;22.20;;;;;;5124494;27;19979;-50
2022/01/23 15:18:46;;;;;;;;;;;23.10;22.20;;;;;;5124845;27;20025;-48
2022/01/23 15:21:13;;;;;;;;;;;23.10;22.20;;;;;;5129879;27;19923;-47
2022/01/23 15:23:39;;;;;;;;;;;23.10;22.20;;;;;;5123678;27;19930;-46
2022/01/23 15:26:05;;;;;;;;;;;23.10;22.30;;;;;;5129765;27;19972;-49
2022/01/23 15:28:31;;;;;;;;;;;23.20;22.30;;;;;;5122265;27;20366;-45
2022/01/23 15:30:57;;;;;;;;;;;23.20;22.20;;;;;;5123090;27;19927;-50
2022/01/23 15:33:22;;;;;;;;;;;23.30;22.30;;;;;;5129255;27;19927;-52
2022/01/23 15:35:48;;;;;;;;;;;23.20;22.30;;;;;;5124330;27;19924;-53
2022/01/23 15:38:15;;;;;;;;;;;23.10;22.40;;;;;;5124127;27;19923;-51
2022/01/23 15:40:40;;;;;;;;;;;23.00;22.50;;;;;;5129249;27;19927;-53
2022/01/23 15:43:06;;;;;;;;;;;23.00;22.40;;;;;;5123416;27;20341;-50
2022/01/23 15:45:32;;;;;;;;;;;23.00;22.50;;;;;;5127480;27;19956;-57
2022/01/23 15:47:58;;;;;;;;;;;23.00;22.50;;;;;;5123761;27;19931;-51
2022/01/23 15:50:23;;;;;;;;;;;23.00;22.60;;;;;;5123737;27;19970;-50
2022/01/23 15:52:49;;;;;;;;;;;23.00;22.60;;;;;;5129035;27;19988;-52
2022/01/23 15:55:15;;;;;;;;;;;23.00;22.60;;;;;;5124055;27;20382;-52
2022/01/23 15:57:41;;;;;;;;;;;23.00;22.60;;;;;;5123814;27;19931;-50
2022/01/23 16:00:08;;;;;;;;;;;23.00;22.60;;;;;;5128613;27;20109;-51
2022/01/23 16:02:34;;;;;;;;;;;23.10;22.60;;;;;;5123634;27;20404;-51
2022/01/23 16:05:00;;;;;;;;;;;23.10;22.60;;;;;;5123072;27;19931;-54
2022/01/23 16:07:26;;;;;;;;;;;23.10;22.50;;;;;;5127223;27;20014;-50
2022/01/23 16:09:51;;;;;;;;;;;23.10;22.60;;;;;;5122881;27;19927;-51
2022/01/23 16:12:17;;;;;;;;;;;23.10;22.70;;;;;;5128738;27;19934;-50
2022/01/23 16:14:43;;;;;;;;;;;23.20;22.60;;;;;;5123486;27;19935;-49
2022/01/23 16:17:09;;;;;;;;;;;23.20;22.60;;;;;;5123428;27;19993;-50
2022/01/23 16:19:35;;;;;;;;;;;23.10;22.70;;;;;;5127844;27;19923;-48
2022/01/23 16:22:00;;;;;;;;;;;23.10;22.60;;;;;;5123038;27;19947;-47
2022/01/23 16:24:27;;;;;;;;;;;23.10;22.70;;;;;;5121012;27;19930;-46
2022/01/23 16:26:53;;;;;;;;;;;23.30;22.60;;;;;;5128563;27;20347;-47
2022/01/23 16:29:21;;;;;;;;;;;23.20;22.70;;;;;;5087667;27;20014;-52
2022/01/23 16:31:47;;;;;;;;;;;23.00;22.80;;;;;;5128769;27;19979;-50
2022/01/23 16:34:13;;;;;;;;;;;23.00;22.80;;;;;;5104701;27;19950;-50
2022/01/23 16:36:38;;;;;;;;;;;23.00;22.70;;;;;;5122795;27;19927;-51
2022/01/23 16:39:04;;;;;;;;;;;23.00;22.70;;;;;;5127708;27;20359;-50
2022/01/23 16:41:30;;;;;;;;;;;23.00;22.70;;;;;;5120540;27;20291;-49
2022/01/23 16:43:56;;;;;;;;;;;23.20;22.60;;;;;;5121918;27;19993;-51
2022/01/23 16:46:22;;;;;;;;;;;23.10;22.50;;;;;;5127841;27;19930;-50
2022/01/23 16:48:47;;;;;;;;;;;23.20;22.50;;;;;;5122596;27;19931;-47
2022/01/23 16:51:13;;;;;;;;;;;23.10;22.50;;;;;;5128131;27;19972;-44
2022/01/23 16:53:39;;;;;;;;;;;23.10;22.40;;;;;;5122608;27;19928;-47
2022/01/23 16:56:05;;;;;;;;;;;23.30;22.30;;;;;;5121608;27;19924;-51
2022/01/23 16:58:31;;;;;;;;;;;23.20;22.30;;;;;;5127846;27;19928;-49
2022/01/23 17:00:57;;;;;;;;;;;23.20;22.40;;;;;;5120420;27;20370;-49
2022/01/23 17:03:22;;;;;;;;;;;23.30;22.30;;;;;;5121976;27;19928;-50
2022/01/23 17:05:48;;;;;;;;;;;23.20;22.30;;;;;;5127298;27;19981;-55
2022/01/23 17:08:14;;;;;;;;;;;23.00;22.50;;;;;;5122529;27;20025;-52
2022/01/23 17:10:40;;;;;;;;;;;23.00;22.50;;;;;;5127558;27;19934;-56
2022/01/23 17:13:06;;;;;;;;;;;23.00;22.50;;;;;;5123288;27;19935;-53
2022/01/23 17:15:32;;;;;;;;;;;23.00;22.50;;;;;;5121656;27;19923;-53
2022/01/23 17:17:58;;;;;;;;;;;22.90;22.60;;;;;;5127402;27;20405;-51
2022/01/23 17:20:23;;;;;;;;;;;23.00;22.50;;;;;;5120192;27;20318;-53
2022/01/23 17:22:50;;;;;;;;;;;22.90;22.60;;;;;;5121730;27;19923;-53
2022/01/23 17:25:16;;;;;;;;;;;22.90;22.60;;;;;;5127319;27;19952;-52
2022/01/23 17:27:41;;;;;;;;;;;23.00;22.50;;;;;;5122025;27;19927;-50
2022/01/23 17:30:07;;;;;;;;;;;23.00;22.60;;;;;;5124266;27;19932;-56